Time;durP1;ratioP1;P1;durP2;ratioP2;P2;SDS_P1;SDS_P2;PMS_P1;PMS_P2;Temp;Humidity;BMP_temperature;BMP_pressure;BME280_temperature;BME280_humidity;BME280_pressure;Samples;Min_cycle;Max_cycle;Signal;HPM_P1;HPM_P2
2021/01/03 00:01:48;;;;;;;63.67;26.13;;;4.40;99.90;;;;;;4998872;28;20528;-89
2021/01/03 00:04:14;;;;;;;65.57;25.00;;;4.40;99.90;;;;;;4999281;28;20137;-89
2021/01/03 00:06:40;;;;;;;88.65;34.92;;;4.30;99.90;;;;;;5027062;28;20176;-89
2021/01/03 00:09:08;;;;;;;67.40;29.50;;;4.40;99.90;;;;;;5010083;28;20092;-88
2021/01/03 00:11:34;;;;;;;74.88;31.23;;;4.30;99.90;;;;;;5003180;28;20019;-88
2021/01/03 00:13:59;;;;;;;68.82;26.27;;;4.30;99.90;;;;;;5006939;28;20372;-88
2021/01/03 00:16:25;;;;;;;66.68;26.55;;;4.30;99.90;;;;;;4999440;28;20018;-89
2021/01/03 00:18:50;;;;;;;69.97;28.38;;;4.30;99.90;;;;;;4998418;28;20504;-89
2021/01/03 00:21:16;;;;;;;74.55;29.33;;;4.30;99.90;;;;;;5004579;28;20026;-88
2021/01/03 00:23:41;;;;;;;71.57;28.60;;;4.30;99.90;;;;;;5003748;28;20026;-89
2021/01/03 00:26:07;;;;;;;72.43;29.67;;;4.30;99.90;;;;;;4999866;28;20105;-89
2021/01/03 00:28:33;;;;;;;68.07;27.92;;;4.30;99.90;;;;;;5002558;28;20015;-88
2021/01/03 00:30:58;;;;;;;65.50;28.58;;;4.30;99.90;;;;;;5012260;28;20072;-88
2021/01/03 00:33:24;;;;;;;71.63;27.70;;;4.30;99.90;;;;;;5003679;28;20393;-88
2021/01/03 00:35:49;;;;;;;56.85;24.20;;;4.30;99.90;;;;;;5007746;28;20149;-88
2021/01/03 00:38:16;;;;;;;54.58;23.50;;;4.30;99.90;;;;;;5002353;28;20026;-88
2021/01/03 00:40:42;;;;;;;61.03;25.20;;;4.30;99.90;;;;;;5000677;28;20079;-88
2021/01/03 00:43:10;;;;;;;84.15;30.58;;;4.30;99.90;;;;;;5002451;28;20034;-88
2021/01/03 00:45:35;;;;;;;62.22;25.20;;;4.30;99.90;;;;;;4998287;28;20113;-88
2021/01/03 00:48:01;;;;;;;66.50;27.45;;;4.30;99.90;;;;;;5015145;28;20108;-89
2021/01/03 00:50:27;;;;;;;50.58;22.02;;;4.30;99.90;;;;;;4997477;28;20061;-88
2021/01/03 00:52:52;;;;;;;55.45;21.77;;;4.20;99.90;;;;;;4998483;28;20086;-89
2021/01/03 00:55:19;;;;;;;65.45;28.95;;;4.20;99.90;;;;;;4998885;28;20033;-88
2021/01/03 00:57:45;;;;;;;63.08;26.75;;;4.20;99.90;;;;;;5000758;28;20029;-89
2021/01/03 01:00:18;;;;;;;72.75;26.75;;;4.30;99.90;;;;;;5007071;28;20027;-89
2021/01/03 01:02:44;;;;;;;87.13;31.92;;;4.20;99.90;;;;;;4998352;28;20030;-89
2021/01/03 01:05:10;;;;;;;77.97;30.33;;;4.30;99.90;;;;;;5004437;28;20068;-89
2021/01/03 01:07:36;;;;;;;69.38;26.38;;;4.30;99.90;;;;;;4998534;28;20042;-89
2021/01/03 01:10:02;;;;;;;66.95;25.63;;;4.30;99.90;;;;;;5005740;28;20429;-89
2021/01/03 01:12:28;;;;;;;72.22;27.33;;;4.30;99.90;;;;;;4999317;28;20045;-88
2021/01/03 01:14:53;;;;;;;73.78;27.90;;;4.30;99.90;;;;;;5012537;28;20478;-88
2021/01/03 01:17:19;;;;;;;70.00;27.45;;;4.30;99.90;;;;;;4999217;28;20033;-88
2021/01/03 01:19:44;;;;;;;73.68;28.25;;;4.30;99.90;;;;;;5001483;28;20022;-88
2021/01/03 01:22:10;;;;;;;66.80;27.52;;;4.30;99.90;;;;;;4999138;28;20037;-89
2021/01/03 01:24:35;;;;;;;62.92;25.88;;;4.30;99.90;;;;;;5002840;28;20430;-88
2021/01/03 01:27:01;;;;;;;85.30;32.95;;;4.30;99.90;;;;;;5006286;28;20029;-89
2021/01/03 01:29:26;;;;;;;65.05;26.35;;;4.30;99.90;;;;;;5004235;28;20049;-88
2021/01/03 01:31:52;;;;;;;72.30;27.35;;;4.30;99.90;;;;;;5007410;28;20042;-88
2021/01/03 01:34:17;;;;;;;70.03;29.75;;;4.20;99.90;;;;;;5002440;28;20418;-89
2021/01/03 01:36:43;;;;;;;70.65;27.05;;;4.30;99.90;;;;;;4999778;28;20014;-89
2021/01/03 01:39:08;;;;;;;61.25;24.73;;;4.30;99.90;;;;;;4998345;28;20025;-88
2021/01/03 01:41:34;;;;;;;77.32;27.38;;;4.30;99.90;;;;;;5000263;28;20041;-88
2021/01/03 01:43:59;;;;;;;64.97;25.98;;;4.30;99.90;;;;;;5000558;28;20033;-88
2021/01/03 01:46:47;;;;;;;67.75;27.17;;;4.30;99.90;;;;;;5005295;28;20148;-88
2021/01/03 01:49:15;;;;;;;66.43;27.85;;;4.30;99.90;;;;;;5011629;28;20030;-88
2021/01/03 01:51:45;;;;;;;56.10;24.80;;;4.30;99.90;;;;;;5007137;28;20486;-88
2021/01/03 01:54:14;;;;;;;54.20;22.63;;;4.30;99.90;;;;;;5013689;28;20022;-87
2021/01/03 01:56:42;;;;;;;81.43;30.38;;;4.30;99.90;;;;;;5030165;28;20018;-88
2021/01/03 01:59:30;;;;;;;66.53;26.90;;;4.30;99.90;;;;;;5011184;28;20029;-89
2021/01/03 02:02:14;;;;;;;85.20;31.23;;;4.30;99.90;;;;;;4994732;28;20462;-88
2021/01/03 02:04:59;;;;;;;71.78;27.85;;;4.30;99.90;;;;;;4998747;28;20029;-88
2021/01/03 02:07:35;;;;;;;61.25;25.67;;;4.30;99.90;;;;;;4998923;28;20052;-88
2021/01/03 02:10:12;;;;;;;60.13;24.83;;;4.30;99.90;;;;;;4997360;28;20027;-89
2021/01/03 02:12:42;;;;;;;56.28;25.27;;;4.30;99.90;;;;;;4997315;28;20027;-88
2021/01/03 02:15:18;;;;;;;66.43;28.50;;;4.20;99.90;;;;;;5005011;28;20034;-89
2021/01/03 02:17:45;;;;;;;64.97;26.92;;;4.20;99.90;;;;;;5002236;28;20482;-89
2021/01/03 02:20:13;;;;;;;56.78;24.58;;;4.10;99.90;;;;;;5000950;28;20057;-88
2021/01/03 02:22:44;;;;;;;56.13;22.80;;;4.10;99.90;;;;;;5001665;28;20036;-88
2021/01/03 02:25:13;;;;;;;49.08;20.95;;;4.10;99.90;;;;;;5002713;28;20021;-88
2021/01/03 02:27:53;;;;;;;54.15;23.60;;;4.10;99.90;;;;;;4998458;28;20053;-88
2021/01/03 02:30:21;;;;;;;43.95;20.20;;;4.10;99.90;;;;;;5005753;28;20422;-88
2021/01/03 02:32:49;;;;;;;61.13;24.70;;;4.10;99.90;;;;;;4997357;28;20136;-88
2021/01/03 02:35:18;;;;;;;57.22;22.70;;;4.20;99.90;;;;;;4998200;28;20034;-87
2021/01/03 02:37:48;;;;;;;53.27;21.10;;;4.20;99.90;;;;;;4997211;28;20026;-88
2021/01/03 02:40:21;;;;;;;43.67;18.83;;;4.20;99.90;;;;;;5006115;28;20076;-88
2021/01/03 02:42:47;;;;;;;50.70;22.42;;;4.20;99.90;;;;;;5003425;28;20035;-88
2021/01/03 02:45:16;;;;;;;50.50;21.05;;;4.20;99.90;;;;;;5008285;28;20156;-87
2021/01/03 02:47:42;;;;;;;56.65;22.15;;;4.20;99.90;;;;;;5003117;28;20022;-88
2021/01/03 02:50:16;;;;;;;52.17;21.85;;;4.20;99.90;;;;;;5007271;28;20466;-88
2021/01/03 02:52:43;;;;;;;48.58;19.88;;;4.20;99.90;;;;;;5002272;28;20033;-88
2021/01/03 02:55:10;;;;;;;40.58;18.38;;;4.20;99.90;;;;;;5004017;28;20022;-88
2021/01/03 02:57:36;;;;;;;52.60;19.77;;;4.20;99.90;;;;;;5002921;28;20455;-88
2021/01/03 03:00:09;;;;;;;50.47;21.33;;;4.20;99.90;;;;;;5006985;28;20026;-88
2021/01/03 03:02:34;;;;;;;62.78;25.40;;;4.20;99.90;;;;;;4994975;28;20490;-88
2021/01/03 03:05:00;;;;;;;61.00;25.30;;;4.20;99.90;;;;;;4997749;28;20121;-88
2021/01/03 03:07:25;;;;;;;60.70;25.55;;;4.20;99.90;;;;;;4993453;28;20046;-88
2021/01/03 03:09:51;;;;;;;64.18;26.98;;;4.20;99.90;;;;;;4994409;28;20041;-88
2021/01/03 03:12:16;;;;;;;60.70;26.08;;;4.10;99.90;;;;;;4998247;28;20562;-88
2021/01/03 03:14:42;;;;;;;57.95;25.77;;;4.10;99.90;;;;;;4996745;28;20109;-88
2021/01/03 03:17:08;;;;;;;54.08;22.20;;;4.10;99.90;;;;;;5001297;28;20026;-88
2021/01/03 03:19:34;;;;;;;58.65;23.00;;;4.10;99.90;;;;;;5002058;28;20029;-88
2021/01/03 03:22:00;;;;;;;74.15;27.55;;;4.10;99.90;;;;;;4998983;28;20097;-88
2021/01/03 03:24:25;;;;;;;66.60;27.17;;;4.10;99.90;;;;;;5000949;28;20166;-88
2021/01/03 03:26:56;;;;;;;69.40;27.63;;;4.10;99.90;;;;;;4998854;28;20033;-88
2021/01/03 03:29:23;;;;;;;64.93;26.15;;;4.10;99.90;;;;;;5003300;28;20018;-88
2021/01/03 03:31:49;;;;;;;67.50;29.95;;;4.10;99.90;;;;;;5001336;28;20057;-89
2021/01/03 03:34:16;;;;;;;78.10;29.02;;;4.10;99.90;;;;;;5021408;28;20025;-88
2021/01/03 03:36:42;;;;;;;62.35;24.48;;;4.10;99.90;;;;;;5001812;28;20015;-89
2021/01/03 03:39:09;;;;;;;66.00;25.80;;;4.10;99.90;;;;;;5000135;28;20030;-88
2021/01/03 03:41:34;;;;;;;72.03;29.70;;;4.10;99.90;;;;;;5006731;28;20025;-88
2021/01/03 03:44:00;;;;;;;73.25;28.98;;;4.00;99.90;;;;;;5009362;28;20026;-88
2021/01/03 03:46:26;;;;;;;70.70;29.20;;;4.00;99.90;;;;;;5006730;28;20540;-88
2021/01/03 03:48:51;;;;;;;70.80;28.70;;;4.10;99.90;;;;;;5011355;28;20057;-88
2021/01/03 03:51:18;;;;;;;80.75;30.92;;;4.00;99.90;;;;;;5008222;28;20014;-87
2021/01/03 03:53:45;;;;;;;76.78;29.85;;;4.00;99.90;;;;;;5002393;28;20025;-88
2021/01/03 03:56:11;;;;;;;84.20;30.65;;;4.00;99.90;;;;;;5002601;28;20076;-87
2021/01/03 03:58:37;;;;;;;78.03;31.55;;;4.00;99.90;;;;;;4997613;28;20057;-87
2021/01/03 04:01:04;;;;;;;78.13;31.05;;;4.00;99.90;;;;;;5004868;28;20026;-88
2021/01/03 04:03:30;;;;;;;63.13;26.20;;;4.00;99.90;;;;;;5002629;28;20477;-88
2021/01/03 04:05:56;;;;;;;69.72;27.52;;;4.00;99.90;;;;;;5007732;28;20119;-88
2021/01/03 04:08:22;;;;;;;67.28;26.25;;;4.10;99.90;;;;;;4998712;28;20474;-88
2021/01/03 04:10:47;;;;;;;67.28;27.20;;;4.10;99.90;;;;;;4998391;28;20026;-88
2021/01/03 04:13:13;;;;;;;66.43;28.38;;;4.10;99.90;;;;;;4996908;28;20054;-88
2021/01/03 04:15:39;;;;;;;63.08;26.85;;;4.10;99.90;;;;;;4996910;28;20014;-88
2021/01/03 04:18:05;;;;;;;63.88;26.63;;;4.10;99.90;;;;;;5018298;28;20026;-89
2021/01/03 04:20:31;;;;;;;62.85;23.90;;;4.10;99.90;;;;;;5011336;28;20026;-88
2021/01/03 04:22:57;;;;;;;60.28;24.48;;;4.20;99.90;;;;;;4999541;28;20486;-87
2021/01/03 04:25:22;;;;;;;56.72;22.27;;;4.20;99.90;;;;;;4998689;28;20026;-89
2021/01/03 04:27:51;;;;;;;66.13;28.83;;;4.20;99.90;;;;;;5002403;28;20033;-88
2021/01/03 04:30:17;;;;;;;73.50;28.92;;;4.20;99.90;;;;;;5003708;28;20036;-88
2021/01/03 04:32:42;;;;;;;60.67;24.98;;;4.20;99.90;;;;;;5016520;28;20100;-87
2021/01/03 04:35:09;;;;;;;73.28;27.10;;;4.20;99.90;;;;;;5001134;28;20018;-88
2021/01/03 04:37:35;;;;;;;69.22;29.92;;;4.20;99.90;;;;;;4997596;28;20405;-88
2021/01/03 04:40:01;;;;;;;76.32;31.08;;;4.20;99.90;;;;;;4994651;28;20478;-88
2021/01/03 04:42:32;;;;;;;62.28;26.50;;;4.20;99.90;;;;;;5000585;28;20026;-88
2021/01/03 04:45:01;;;;;;;67.88;26.52;;;4.20;99.90;;;;;;5000434;28;20026;-88
2021/01/03 04:47:39;;;;;;;62.80;24.00;;;4.10;99.90;;;;;;5002638;28;20015;-88
2021/01/03 04:50:10;;;;;;;56.35;23.88;;;4.20;99.90;;;;;;5010104;28;20482;-88
2021/01/03 04:52:53;;;;;;;61.95;24.75;;;4.20;99.90;;;;;;5000780;28;20034;-88
2021/01/03 04:55:25;;;;;;;60.88;22.65;;;4.20;99.90;;;;;;5005618;28;20018;-88
2021/01/03 04:58:17;;;;;;;62.60;23.63;;;4.20;99.90;;;;;;4997019;28;20505;-88
2021/01/03 05:01:16;;;;;;;73.07;26.83;;;4.20;99.90;;;;;;5005113;28;20030;-88
2021/01/03 05:04:14;;;;;;;62.03;24.73;;;4.10;99.90;;;;;;4998321;28;20105;-88
2021/01/03 05:06:50;;;;;;;58.70;23.13;;;4.10;99.90;;;;;;5001111;28;20501;-88
2021/01/03 05:09:16;;;;;;;54.05;23.33;;;4.10;99.90;;;;;;5001577;28;20028;-88
2021/01/03 05:12:09;;;;;;;58.17;22.52;;;4.10;99.90;;;;;;4995720;28;20391;-88
2021/01/03 05:14:51;;;;;;;47.22;20.00;;;4.20;99.90;;;;;;5003963;28;20026;-88
2021/01/03 05:17:16;;;;;;;50.25;20.48;;;4.20;99.90;;;;;;5012593;28;20025;-88
2021/01/03 05:19:42;;;;;;;52.47;21.42;;;4.10;99.90;;;;;;5004625;28;20040;-88
2021/01/03 05:22:07;;;;;;;54.05;21.42;;;4.10;99.90;;;;;;5002584;28;20033;-87
2021/01/03 05:24:44;;;;;;;55.30;22.23;;;4.10;99.90;;;;;;5008865;28;20106;-88
2021/01/03 05:27:17;;;;;;;52.25;20.08;;;4.20;99.90;;;;;;4994426;28;20027;-88
2021/01/03 05:29:43;;;;;;;51.15;20.40;;;4.20;99.90;;;;;;5009215;28;20018;-88
2021/01/03 05:32:10;;;;;;;48.75;19.15;;;4.20;99.90;;;;;;5009031;28;20379;-87
2021/01/03 05:34:42;;;;;;;46.95;17.92;;;4.20;99.90;;;;;;5008251;28;20105;-88
2021/01/03 05:37:19;;;;;;;50.92;19.35;;;4.20;99.90;;;;;;5002114;28;20049;-88
2021/01/03 05:39:46;;;;;;;45.65;18.98;;;4.20;99.90;;;;;;4999627;28;20478;-88
2021/01/03 05:42:21;;;;;;;45.45;17.42;;;4.20;99.90;;;;;;5002544;28;20021;-87
2021/01/03 05:45:03;;;;;;;42.08;17.63;;;4.20;99.90;;;;;;5002115;28;20068;-87
2021/01/03 05:47:37;;;;;;;55.30;20.65;;;4.30;99.90;;;;;;5005729;28;20454;-87
2021/01/03 05:50:29;;;;;;;56.95;20.92;;;4.20;99.90;;;;;;4999750;28;20076;-88
2021/01/03 05:53:04;;;;;;;53.67;22.02;;;4.20;99.90;;;;;;5004174;28;20041;-88
2021/01/03 05:55:30;;;;;;;58.10;24.80;;;4.20;99.90;;;;;;4996363;28;20026;-87
2021/01/03 05:58:10;;;;;;;56.80;22.83;;;4.10;99.90;;;;;;4993583;28;20026;-88
2021/01/03 06:00:37;;;;;;;54.78;22.48;;;4.10;99.90;;;;;;4996978;28;20022;-87
2021/01/03 06:03:22;;;;;;;56.25;21.13;;;4.10;99.90;;;;;;4998588;28;20050;-87
2021/01/03 06:06:11;;;;;;;46.17;19.02;;;4.10;99.90;;;;;;4998851;28;20033;-88
2021/01/03 06:08:39;;;;;;;48.40;18.25;;;4.10;99.90;;;;;;5001572;28;20033;-87
2021/01/03 06:11:17;;;;;;;45.70;17.90;;;4.10;99.90;;;;;;5003902;28;20053;-88
2021/01/03 06:13:47;;;;;;;52.90;20.27;;;4.20;99.90;;;;;;4997031;28;20129;-87
2021/01/03 06:16:13;;;;;;;50.50;19.73;;;4.20;99.90;;;;;;4995993;28;20026;-87
2021/01/03 06:19:04;;;;;;;51.97;21.15;;;4.20;99.90;;;;;;5014388;28;20105;-87
2021/01/03 06:21:39;;;;;;;52.78;21.73;;;4.20;99.90;;;;;;4992054;28;20437;-88
2021/01/03 06:24:22;;;;;;;48.03;20.40;;;4.20;99.90;;;;;;4999198;28;20026;-87
2021/01/03 06:27:06;;;;;;;45.08;18.58;;;4.20;99.90;;;;;;5006304;28;20544;-88
2021/01/03 06:29:46;;;;;;;48.17;20.10;;;4.20;99.90;;;;;;4997903;28;20030;-88
2021/01/03 06:32:41;;;;;;;50.55;20.95;;;4.20;99.90;;;;;;4999275;28;20046;-88
2021/01/03 06:35:47;;;;;;;49.42;19.02;;;4.20;99.90;;;;;;5002821;28;20026;-88
2021/01/03 06:38:30;;;;;;;41.95;17.27;;;4.20;99.90;;;;;;5003450;28;20061;-87
2021/01/03 06:41:05;;;;;;;43.45;18.52;;;4.20;99.90;;;;;;5002750;28;20543;-88
2021/01/03 06:44:05;;;;;;;44.13;18.17;;;4.20;99.90;;;;;;5005972;28;20026;-88
2021/01/03 06:46:45;;;;;;;;;;;4.20;99.90;;;;;;5002881;28;20431;-87
2021/01/03 06:49:29;;;;;;;40.83;16.00;;;4.20;99.90;;;;;;5010984;28;19906;-87
2021/01/03 06:52:20;;;;;;;38.90;15.95;;;4.20;99.90;;;;;;5003640;28;20105;-87
2021/01/03 06:55:23;;;;;;;56.55;23.17;;;4.20;99.90;;;;;;4987747;28;20049;-87
2021/01/03 06:58:26;;;;;;;56.10;23.13;;;4.20;99.90;;;;;;5008656;28;20021;-87
2021/01/03 07:00:59;;;;;;;55.22;21.48;;;4.20;99.90;;;;;;5001437;28;20030;-87
2021/01/03 07:03:30;;;;;;;66.57;25.73;;;4.20;99.90;;;;;;5003792;28;20026;-87
2021/01/03 07:06:05;;;;;;;56.42;24.77;;;4.20;99.90;;;;;;5012723;28;20109;-87
2021/01/03 07:08:51;;;;;;;56.45;24.30;;;4.20;99.90;;;;;;5016813;28;20044;-88
2021/01/03 07:11:41;;;;;;;51.40;22.60;;;4.20;99.90;;;;;;5012254;28;20025;-87
2021/01/03 07:14:22;;;;;;;46.53;19.52;;;4.20;99.90;;;;;;5002749;28;20019;-87
2021/01/03 07:17:14;;;;;;;60.75;25.85;;;4.20;99.90;;;;;;4995610;28;20095;-87
2021/01/03 07:19:53;;;;;;;62.67;26.23;;;4.20;99.90;;;;;;4995650;28;20031;-87
2021/01/03 07:22:23;;;;;;;53.42;24.58;;;4.20;99.90;;;;;;4997166;28;20038;-87
2021/01/03 07:24:51;;;;;;;57.35;24.05;;;4.20;99.90;;;;;;4995873;28;20042;-87
2021/01/03 07:27:28;;;;;;;57.25;24.77;;;4.20;99.90;;;;;;4995466;28;20517;-87
2021/01/03 07:30:03;;;;;;;54.88;23.60;;;4.20;99.90;;;;;;4995757;28;20033;-87
2021/01/03 07:32:37;;;;;;;51.17;21.30;;;4.20;99.90;;;;;;4995515;28;20046;-87
2021/01/03 07:35:21;;;;;;;50.70;22.75;;;4.20;99.90;;;;;;4995735;28;20433;-87
2021/01/03 07:37:51;;;;;;;67.63;29.02;;;4.20;99.90;;;;;;4996685;28;20478;-87
2021/01/03 07:40:24;;;;;;;57.47;26.52;;;4.20;99.90;;;;;;4995548;28;20026;-87
2021/01/03 07:42:53;;;;;;;58.58;25.05;;;4.20;99.90;;;;;;5012154;28;20049;-87
2021/01/03 07:45:40;;;;;;;63.65;27.60;;;4.20;99.90;;;;;;5014841;28;20049;-87
2021/01/03 07:48:39;;;;;;;52.22;23.50;;;4.20;99.90;;;;;;5014426;28;20014;-87
2021/01/03 07:51:10;;;;;;;59.50;25.98;;;4.20;99.90;;;;;;5031270;28;20109;-87
2021/01/03 07:53:38;;;;;;;56.10;25.33;;;4.20;99.90;;;;;;5014687;28;20025;-87
2021/01/03 07:56:20;;;;;;;52.20;24.23;;;4.20;99.90;;;;;;5014696;28;20025;-87
2021/01/03 07:58:51;;;;;;;50.30;22.60;;;4.20;99.90;;;;;;5015949;28;20036;-87
2021/01/03 08:01:18;;;;;;;58.78;25.83;;;4.20;99.90;;;;;;5014259;28;20018;-86
2021/01/03 08:03:43;;;;;;;53.25;25.92;;;4.20;99.90;;;;;;5015392;28;20030;-87
2021/01/03 08:06:11;;;;;;;56.97;26.65;;;4.20;99.90;;;;;;5014214;28;20018;-87
2021/01/03 08:08:36;;;;;;;63.33;27.27;;;4.20;99.90;;;;;;5013989;28;20024;-87
2021/01/03 08:11:30;;;;;;;56.58;25.60;;;4.20;99.90;;;;;;5014230;28;20030;-87
2021/01/03 08:14:00;;;;;;;48.33;22.35;;;4.20;99.90;;;;;;5012621;28;20034;-87
2021/01/03 08:16:28;;;;;;;43.60;19.85;;;4.20;99.90;;;;;;5013939;28;20109;-87
2021/01/03 08:19:04;;;;;;;60.97;26.67;;;4.20;99.90;;;;;;5013956;28;20073;-87
2021/01/03 08:21:34;;;;;;;57.60;26.35;;;4.20;99.90;;;;;;5021629;28;20180;-87
2021/01/03 08:24:05;;;;;;;54.70;26.48;;;4.20;99.90;;;;;;5014088;28;20029;-87
2021/01/03 08:26:39;;;;;;;56.58;26.70;;;4.20;99.90;;;;;;5013772;28;20029;-87
2021/01/03 08:29:35;;;;;;;53.65;26.85;;;4.20;99.90;;;;;;5013915;28;20030;-87
2021/01/03 08:32:08;;;;;;;52.58;26.00;;;4.20;99.90;;;;;;5013839;28;20450;-86
2021/01/03 08:34:38;;;;;;;50.13;24.83;;;4.10;99.90;;;;;;5019935;28;20023;-86
2021/01/03 08:37:14;;;;;;;;;;;4.10;99.90;;;;;;5002184;28;20014;-87
2021/01/03 08:39:40;;;;;;;54.17;25.45;;;4.10;99.90;;;;;;5003464;28;19912;-87
2021/01/03 08:42:10;;;;;;;48.63;24.70;;;4.10;99.90;;;;;;5012633;28;20025;-89
2021/01/03 08:44:40;;;;;;;46.55;23.75;;;4.10;99.90;;;;;;5014321;28;20022;-88
2021/01/03 08:47:18;;;;;;;44.80;22.73;;;4.10;99.90;;;;;;5013946;28;20030;-89
2021/01/03 08:49:43;;;;;;;46.03;22.63;;;4.10;99.90;;;;;;5015260;28;20018;-89
2021/01/03 08:52:20;;;;;;;45.83;23.42;;;4.10;99.90;;;;;;5014287;28;20124;-87
2021/01/03 08:54:48;;;;;;;48.42;23.88;;;4.20;99.90;;;;;;5013905;28;20021;-89
2021/01/03 08:57:15;;;;;;;45.05;24.30;;;4.20;99.90;;;;;;5014001;28;20119;-89
2021/01/03 08:59:42;;;;;;;47.13;24.67;;;4.10;99.90;;;;;;5012438;28;20121;-89
2021/01/03 09:02:23;;;;;;;49.55;23.42;;;4.10;99.90;;;;;;5014047;28;20489;-87
2021/01/03 09:04:53;;;;;;;47.47;24.38;;;4.20;99.90;;;;;;5013408;28;20112;-89
2021/01/03 09:07:20;;;;;;;50.72;25.52;;;4.20;99.90;;;;;;5013576;28;20018;-89
2021/01/03 09:09:50;;;;;;;48.72;24.88;;;4.20;99.90;;;;;;5007994;28;20015;-88
2021/01/03 09:12:36;;;;;;;46.58;23.38;;;4.10;99.90;;;;;;5017186;28;20457;-87
2021/01/03 09:15:05;;;;;;;44.28;22.90;;;4.20;99.90;;;;;;5004249;28;20037;-87
2021/01/03 09:17:36;;;;;;;44.33;23.25;;;4.10;99.90;;;;;;5013545;28;20485;-87
2021/01/03 09:20:09;;;;;;;44.67;23.80;;;4.10;99.90;;;;;;5013352;28;20018;-86
2021/01/03 09:22:51;;;;;;;44.08;22.70;;;4.20;99.90;;;;;;5012697;28;20104;-87
2021/01/03 09:25:23;;;;;;;40.00;22.02;;;4.20;99.90;;;;;;5000149;28;20129;-87
2021/01/03 09:27:54;;;;;;;41.53;21.20;;;4.20;99.90;;;;;;5011413;28;20077;-87
2021/01/03 09:30:19;;;;;;;44.28;21.80;;;4.10;99.90;;;;;;5013165;28;20038;-86
2021/01/03 09:32:50;;;;;;;46.72;22.17;;;4.10;99.90;;;;;;5013769;28;20046;-86
2021/01/03 09:35:53;;;;;;;39.42;22.20;;;4.10;99.90;;;;;;5012323;28;20117;-86
2021/01/03 09:38:39;;;;;;;38.10;19.88;;;4.20;99.90;;;;;;4976241;28;20125;-87
2021/01/03 09:41:25;;;;;;;38.17;19.58;;;4.10;99.90;;;;;;5014897;28;20030;-90
2021/01/03 09:44:12;;;;;;;33.83;18.48;;;4.10;99.90;;;;;;4990877;28;20799;-90
2021/01/03 09:46:49;;;;;;;35.95;18.38;;;4.20;99.90;;;;;;5013718;28;20103;-90
2021/01/03 09:49:35;;;;;;;38.13;17.42;;;4.20;99.90;;;;;;5014938;28;20022;-89
2021/01/03 09:52:40;;;;;;;29.15;16.27;;;4.10;99.90;;;;;;4991927;28;20030;-89
2021/01/03 09:55:20;;;;;;;29.27;16.30;;;4.10;99.90;;;;;;5013773;28;20026;-89
2021/01/03 09:58:06;;;;;;;30.15;15.93;;;4.10;99.90;;;;;;5014766;28;20041;-91
2021/01/03 10:00:46;;;;;;;28.20;15.23;;;4.20;99.90;;;;;;5017260;28;20083;-91
2021/01/03 10:03:16;;;;;;;30.05;15.57;;;4.20;99.90;;;;;;5013351;28;20117;-89
2021/01/03 10:05:41;;;;;;;27.25;13.90;;;4.20;99.90;;;;;;5013177;28;20025;-91
2021/01/03 10:08:30;;;;;;;24.95;14.07;;;4.20;99.90;;;;;;5013526;28;20590;-90
2021/01/03 10:10:59;;;;;;;25.88;13.10;;;4.20;99.90;;;;;;5007647;28;20018;-89
2021/01/03 10:13:27;;;;;;;26.02;15.35;;;4.20;99.90;;;;;;5009137;28;20084;-89
2021/01/03 10:15:57;;;;;;;24.30;12.13;;;4.20;99.90;;;;;;5013905;28;20026;-89
2021/01/03 10:18:33;;;;;;;23.42;13.43;;;4.20;99.90;;;;;;5013457;28;20132;-90
2021/01/03 10:20:59;;;;;;;25.58;12.50;;;4.20;99.90;;;;;;5012394;28;20052;-89
2021/01/03 10:23:40;;;;;;;22.90;12.65;;;4.20;99.80;;;;;;5013064;28;20022;-90
2021/01/03 10:26:20;;;;;;;25.35;13.50;;;4.30;99.80;;;;;;5012895;28;20057;-88
2021/01/03 10:28:45;;;;;;;20.02;11.52;;;4.30;99.60;;;;;;5012675;28;20036;-90
2021/01/03 10:31:11;;;;;;;21.70;11.70;;;4.30;99.70;;;;;;5023038;28;20441;-90
2021/01/03 10:33:37;;;;;;;19.10;10.60;;;4.30;99.70;;;;;;5014409;28;20030;-91
2021/01/03 10:36:03;;;;;;;23.55;12.32;;;4.30;99.50;;;;;;5014213;28;20061;-88
2021/01/03 10:38:28;;;;;;;19.77;11.45;;;4.30;99.60;;;;;;5015389;28;20029;-91
2021/01/03 10:40:54;;;;;;;19.75;11.38;;;4.40;99.50;;;;;;5013747;28;20026;-89
2021/01/03 10:43:19;;;;;;;22.63;11.38;;;4.30;98.90;;;;;;5012831;28;20470;-90
2021/01/03 10:45:45;;;;;;;19.48;11.18;;;4.40;98.80;;;;;;5012054;28;20425;-89
2021/01/03 10:48:13;;;;;;;20.27;11.70;;;4.40;98.70;;;;;;5012441;28;20042;-89
2021/01/03 10:50:38;;;;;;;19.25;10.65;;;4.40;98.60;;;;;;5001879;28;20197;-89
2021/01/03 10:53:04;;;;;;;19.38;10.10;;;4.40;98.30;;;;;;4998397;28;20154;-87
2021/01/03 10:55:29;;;;;;;17.00;10.63;;;4.40;98.30;;;;;;5010864;28;20044;-88
2021/01/03 10:57:57;;;;;;;17.90;9.73;;;4.40;98.20;;;;;;4999568;28;20042;-88
2021/01/03 11:00:23;;;;;;;18.85;11.13;;;4.40;98.20;;;;;;5009412;28;20018;-88
2021/01/03 11:02:48;;;;;;;15.90;9.15;;;4.40;97.80;;;;;;5011670;28;20026;-88
2021/01/03 11:05:16;;;;;;;17.75;9.70;;;4.40;97.50;;;;;;4999893;28;20041;-88
2021/01/03 11:07:41;;;;;;;17.23;9.02;;;4.40;97.80;;;;;;4998331;28;20398;-91
2021/01/03 11:10:08;;;;;;;19.00;9.70;;;4.40;97.70;;;;;;4998198;28;20034;-91
2021/01/03 11:12:34;;;;;;;19.60;9.68;;;4.50;97.80;;;;;;5008987;28;20032;-90
2021/01/03 11:15:00;;;;;;;14.43;8.88;;;4.50;97.60;;;;;;5010979;28;20030;-90
2021/01/03 11:17:26;;;;;;;18.05;9.07;;;4.50;97.70;;;;;;5011937;28;20069;-89
2021/01/03 11:19:52;;;;;;;14.32;8.18;;;4.50;97.80;;;;;;5009614;28;20057;-90
2021/01/03 11:22:18;;;;;;;15.60;8.02;;;4.60;98.10;;;;;;5011256;28;20026;-91
2021/01/03 11:24:44;;;;;;;17.75;9.18;;;4.60;98.20;;;;;;5003781;28;20022;-88
2021/01/03 11:27:15;;;;;;;15.38;8.98;;;4.60;97.90;;;;;;5027068;28;20113;-89
2021/01/03 11:29:41;;;;;;;15.90;8.85;;;4.60;98.00;;;;;;5012258;28;20025;-89
2021/01/03 11:32:15;;;;;;;15.35;9.18;;;4.60;98.20;;;;;;5012074;28;20042;-90
2021/01/03 11:34:41;;;;;;;14.68;8.32;;;4.60;97.70;;;;;;5003702;28;20022;-89
2021/01/03 11:37:10;;;;;;;16.38;9.23;;;4.60;97.50;;;;;;5019066;28;20026;-92
2021/01/03 11:39:37;;;;;;;18.37;9.63;;;4.50;97.30;;;;;;5023328;28;20155;-89
2021/01/03 11:42:08;;;;;;;15.65;9.23;;;4.60;97.40;;;;;;5012222;28;20346;-88
2021/01/03 11:44:34;;;;;;;11.35;6.68;;;4.50;97.50;;;;;;5013925;28;20124;-90
2021/01/03 11:47:09;;;;;;;17.35;9.13;;;4.60;97.90;;;;;;5010158;28;20058;-89
2021/01/03 11:49:35;;;;;;;16.50;8.93;;;4.60;97.30;;;;;;5008549;28;20030;-88
2021/01/03 11:52:02;;;;;;;14.40;7.70;;;4.60;97.00;;;;;;5015111;28;20093;-88
2021/01/03 11:54:28;;;;;;;13.43;8.50;;;4.60;97.60;;;;;;5015292;28;20030;-88
2021/01/03 11:56:55;;;;;;;14.18;8.70;;;4.60;97.60;;;;;;5007744;28;20038;-88
2021/01/03 11:59:22;;;;;;;14.35;8.15;;;4.60;97.40;;;;;;5024897;28;20048;-88
2021/01/03 12:01:57;;;;;;;15.18;8.02;;;4.50;97.10;;;;;;5018637;28;20092;-88
2021/01/03 12:04:23;;;;;;;11.80;7.72;;;4.50;96.90;;;;;;5015920;28;20028;-88
2021/01/03 12:06:57;;;;;;;14.00;8.07;;;4.60;97.10;;;;;;5010641;28;20030;-90
2021/01/03 12:09:23;;;;;;;15.23;8.60;;;4.50;96.90;;;;;;5015252;28;20705;-88
2021/01/03 12:11:53;;;;;;;13.00;7.57;;;4.60;97.00;;;;;;5014869;28;20080;-89
2021/01/03 12:14:19;;;;;;;;;;;4.60;96.90;;;;;;5015968;28;20030;-89
2021/01/03 12:16:44;;;;;;;14.40;7.40;;;4.50;96.80;;;;;;5014998;28;19961;-88
2021/01/03 12:19:10;;;;;;;14.20;7.30;;;4.50;96.60;;;;;;5014379;28;20025;-88
2021/01/03 12:21:37;;;;;;;14.07;7.90;;;4.50;96.50;;;;;;5014911;28;20032;-90
2021/01/03 12:24:03;;;;;;;14.35;7.72;;;4.50;96.30;;;;;;5014970;28;20022;-90
2021/01/03 12:26:37;;;;;;;12.93;7.60;;;4.50;96.30;;;;;;5014912;28;20072;-89
2021/01/03 12:29:04;;;;;;;12.65;7.25;;;4.50;96.30;;;;;;5015303;28;20022;-86
2021/01/03 12:31:39;;;;;;;12.63;6.65;;;4.50;96.60;;;;;;5014366;28;20068;-88
2021/01/03 12:34:06;;;;;;;13.90;7.80;;;4.50;96.70;;;;;;5015136;28;20022;-88
2021/01/03 12:36:32;;;;;;;15.95;8.35;;;4.50;96.70;;;;;;5016873;28;20022;-87
2021/01/03 12:38:58;;;;;;;15.45;8.15;;;4.50;96.30;;;;;;5017151;28;20585;-88
2021/01/03 12:41:24;;;;;;;14.93;8.02;;;4.50;95.70;;;;;;5015980;28;20117;-90
2021/01/03 12:43:50;;;;;;;13.32;7.07;;;4.50;95.70;;;;;;5029604;28;20065;-89
2021/01/03 12:46:34;;;;;;;14.30;7.82;;;4.50;95.60;;;;;;5015759;28;20117;-87
2021/01/03 12:49:00;;;;;;;15.27;8.15;;;4.50;95.60;;;;;;5010035;28;20088;-90
2021/01/03 12:51:26;;;;;;;15.48;7.75;;;4.50;95.70;;;;;;5012527;28;20474;-89
2021/01/03 12:53:53;;;;;;;16.60;7.82;;;4.40;95.90;;;;;;5016082;28;20041;-89
2021/01/03 12:56:26;;;;;;;16.20;8.85;;;4.40;95.70;;;;;;5015169;28;20401;-89
2021/01/03 12:58:53;;;;;;;15.40;8.52;;;4.40;95.80;;;;;;5013865;28;20446;-88
2021/01/03 13:01:34;;;;;;;15.93;8.93;;;4.40;95.80;;;;;;5014063;28;20029;-90